Terminal Aerodrome Forecast
Issued by NWS Upton, NY

Home | Current Version | Previous Version | Text Only | Print | Product List | Glossary On
Versions: 1 2 3 4 5 6 7 8 9 10 11 12 13 14 15 16 17 18 19 20 21 22 23 24 25 26 27 28 29 30
259
FTUS41 KOKX 302344
TAFEWR
TAF
KEWR 302344Z 0100/0206 15007KT P6SM SCT250
     FM010200 16005KT P6SM BKN200
     FM010500 13004KT P6SM BKN120
     FM010900 10004KT P6SM OVC100
     FM011100 11007KT 6SM -RA OVC070
     FM011600 09008KT 4SM -RA OVC040
     FM011800 09007KT 2SM -RA BR OVC015
     FM020100 08006KT 2SM -RA BR OVC008
     FM020300 07005KT 2SM -RA BR OVC006=

USA.gov is the U.S. government's official web portal to all federal, state and local government web resources and services.